Les Cayes, Haiti
Current Conditions -  °F | °C
As of 7:56 PM on Sunday 23 Nov 2014 (Local Time) from MUGM Reporting Station
Few Clouds Few Clouds  
Wind Chill: 29°   Ceiling: Unl
Heat Index: 34°   Visibility: 6mi
Dew Point: 25°   Wind: 5mph
Humidity: 79%   Direction: 80°E
Pressure: 29.96"   Gusts: NA
Location:  18.2°N, 73.75°W
Report Text: MUGM 240056Z 08004KT 9999 FEW030 29/25 A2996 RMK SLP145 T02890250
Loading
Personal Weather Stations






























Interactive Weather Map New forecast layout! Learn more

10-Day Weather Forecast

Advertisements
Track Severe Weather on mobile